WMKK/KUL METAR and TAF weather

Enter ICAO airport designator
Station Type Date Time Source
WMKK METAR 2022/05/24 11:30 UTC NOAA

WMKK 241130Z 03010KT 350V070 9999 TS FEW017CB SCT030 29/24 Q1009 TEMPO 7000 -TSRA


Station Type Date Time Source
WMKK Decoded METAR 2022/05/24 11:30 UTC NOAA

Sepang/KL International Airport, Malaysia (WMKK) 02-44N 101-42E 22M
May 24, 2022 - 07:30 AM EDT / 2022.05.24 1130 UTC
Wind: from the NNE (030 degrees) at 12 MPH (10 KT) (direction variable):0
Visibility: greater than 7 mile(s):0
Sky conditions: partly cloudy
Weather: thunder; Cumulonimbus clouds observed
Temperature: 84 F (29 C)
Dew Point: 75 F (24 C)
Relative Humidity: 74%
Pressure (altimeter): 29.80 in. Hg (1009 hPa)
ob: WMKK 241130Z 03010KT 350V070 9999 TS FEW017CB SCT030 29/24 Q1009 TEMPO 7000 -TSRA
cycle: 11

Station Type Date Time Source
WMKK TAF 2022/05/24 12:11 UTC NOAA

TAF WMKK 241100Z 2412/2518 VRB02KT 9999 FEW017CB PROB30
TEMPO 2420/2501 4000 TSRA FEW016CB SCT018

Example: see airport list